createdAt,value
2019-05-25T00:01:00.777Z,70.67
2019-05-25T00:03:28.991Z,70.58
2019-05-25T00:05:57.214Z,70.57
2019-05-25T00:08:25.424Z,70.63
2019-05-25T00:10:53.665Z,70.59
2019-05-25T00:13:21.875Z,70.53
2019-05-25T00:15:50.095Z,70.59
2019-05-25T00:18:18.352Z,70.62
2019-05-25T00:20:46.560Z,70.62
2019-05-25T00:23:14.803Z,70.69
2019-05-25T00:25:43.039Z,70.66
2019-05-25T00:28:11.281Z,70.56
2019-05-25T00:30:39.495Z,70.44
2019-05-25T00:33:07.737Z,70.38
2019-05-25T00:35:35.975Z,70.37
2019-05-25T00:38:04.198Z,70.39
2019-05-25T00:40:32.420Z,70.34
2019-05-25T00:43:00.652Z,70.38
2019-05-25T00:45:28.870Z,70.43
2019-05-25T00:47:57.095Z,70.37
2019-05-25T00:50:25.316Z,70.38
2019-05-25T00:52:53.549Z,70.46
2019-05-25T00:55:21.764Z,70.45
2019-05-25T00:57:50.357Z,70.47
2019-05-25T01:00:18.582Z,70.57
2019-05-25T01:02:46.819Z,70.67
2019-05-25T01:05:15.132Z,70.67
2019-05-25T01:07:43.353Z,70.89
2019-05-25T01:10:12.242Z,71.04
2019-05-25T01:12:40.440Z,71.23
2019-05-25T01:15:08.649Z,71.39
2019-05-25T01:17:36.889Z,71.46
2019-05-25T01:20:07.874Z,71.51
2019-05-25T01:22:36.197Z,71.50
2019-05-25T01:25:05.387Z,71.49
2019-05-25T01:27:33.630Z,71.46
2019-05-25T01:30:01.848Z,71.49
2019-05-25T01:32:30.065Z,71.65
2019-05-25T01:34:58.319Z,71.79
2019-05-25T01:37:26.528Z,71.85
2019-05-25T01:39:54.852Z,71.95
2019-05-25T01:42:23.080Z,71.97
2019-05-25T01:44:51.356Z,71.93
2019-05-25T01:47:19.581Z,72.05
2019-05-25T01:49:47.883Z,72.06
2019-05-25T01:52:16.111Z,72.22
2019-05-25T01:54:58.902Z,72.18
2019-05-25T01:57:14.329Z,72.30
2019-05-25T01:59:42.523Z,72.36
2019-05-25T02:02:10.762Z,72.35
2019-05-25T02:04:38.991Z,72.82
2019-05-25T02:07:07.250Z,73.15
2019-05-25T02:09:35.488Z,73.40
2019-05-25T02:12:03.701Z,73.40
2019-05-25T02:14:31.928Z,73.30
2019-05-25T02:17:00.152Z,73.23
2019-05-25T02:19:28.370Z,73.36
2019-05-25T02:21:56.611Z,73.27
2019-05-25T02:24:24.840Z,73.47
2019-05-25T02:26:53.073Z,73.42
2019-05-25T02:29:21.308Z,73.44
2019-05-25T02:31:49.564Z,73.43
2019-05-25T02:34:17.865Z,73.44
2019-05-25T02:36:46.121Z,73.42
2019-05-25T02:39:14.368Z,73.38
2019-05-25T02:41:42.588Z,73.66
2019-05-25T02:44:10.789Z,73.67
2019-05-25T02:46:39.049Z,73.71
2019-05-25T02:49:07.270Z,73.84
2019-05-25T02:51:35.567Z,73.77
2019-05-25T02:54:03.844Z,73.93
2019-05-25T02:56:32.081Z,73.97
2019-05-25T02:59:00.329Z,74.27
2019-05-25T03:01:28.548Z,74.08
2019-05-25T03:03:56.784Z,74.07
2019-05-25T03:06:24.999Z,74.04
2019-05-25T03:08:53.407Z,74.21
2019-05-25T03:11:21.631Z,74.02
2019-05-25T03:13:49.875Z,73.98
2019-05-25T03:16:18.178Z,73.95
2019-05-25T03:18:46.515Z,73.99
2019-05-25T03:21:14.782Z,73.93
2019-05-25T03:23:43.003Z,73.83
2019-05-25T03:26:11.238Z,73.76
2019-05-25T03:28:39.457Z,73.62
2019-05-25T03:31:07.692Z,73.56
2019-05-25T03:33:35.909Z,73.55
2019-05-25T03:36:04.214Z,73.79
2019-05-25T03:38:32.411Z,73.79
2019-05-25T03:41:00.687Z,73.53
2019-05-25T03:43:28.906Z,73.55
2019-05-25T03:45:57.156Z,73.51
2019-05-25T03:48:25.370Z,73.52
2019-05-25T03:50:53.599Z,73.51
2019-05-25T03:53:21.862Z,73.57
2019-05-25T03:56:04.673Z,73.46
2019-05-25T03:58:20.027Z,73.31
2019-05-25T04:00:48.258Z,73.36
2019-05-25T04:03:16.505Z,73.29
2019-05-25T04:05:44.764Z,73.06
2019-05-25T04:08:12.993Z,72.92
2019-05-25T04:10:41.251Z,72.78
2019-05-25T04:13:09.462Z,72.72
2019-05-25T04:15:37.712Z,72.60
2019-05-25T04:18:05.945Z,72.41
2019-05-25T04:20:34.256Z,72.22
2019-05-25T04:23:02.463Z,72.24
2019-05-25T04:25:30.702Z,72.21
2019-05-25T04:27:59.018Z,72.15
2019-05-25T04:30:27.229Z,72.15
2019-05-25T04:32:55.431Z,72.16
2019-05-25T04:35:23.646Z,72.10
2019-05-25T04:37:51.875Z,72.10
2019-05-25T04:40:22.988Z,72.09
2019-05-25T04:42:50.053Z,72.25
2019-05-25T04:45:18.301Z,72.44
2019-05-25T04:47:46.513Z,72.41
2019-05-25T04:50:14.757Z,72.41
2019-05-25T04:52:42.964Z,72.40
2019-05-25T04:55:11.196Z,72.33
2019-05-25T04:57:39.413Z,72.24
2019-05-25T05:00:08.441Z,72.24
2019-05-25T05:02:36.654Z,72.15
2019-05-25T05:05:05.684Z,72.05
2019-05-25T05:07:33.907Z,72.00
2019-05-25T05:10:03.394Z,71.79
2019-05-25T05:12:31.735Z,71.66
2019-05-25T05:14:59.968Z,71.50
2019-05-25T05:17:28.176Z,71.39
2019-05-25T05:19:56.393Z,71.19
2019-05-25T05:22:24.699Z,70.98
2019-05-25T05:24:52.871Z,70.86
2019-05-25T05:27:21.142Z,70.55
2019-05-25T05:29:49.382Z,70.15
2019-05-25T05:32:27.181Z,69.92
2019-05-25T05:34:47.542Z,69.69
2019-05-25T05:37:15.757Z,69.77
2019-05-25T05:39:44.036Z,69.95
2019-05-25T05:42:14.674Z,69.93
2019-05-25T05:44:42.899Z,69.82
2019-05-25T05:47:13.154Z,69.78
2019-05-25T05:49:41.404Z,69.65
2019-05-25T05:52:09.642Z,69.55
2019-05-25T05:54:37.906Z,69.27
2019-05-25T05:57:12.326Z,69.19
2019-05-25T05:59:36.179Z,69.03
2019-05-25T06:02:04.411Z,69.07
2019-05-25T06:04:32.632Z,69.11
2019-05-25T06:07:00.934Z,69.21
2019-05-25T06:09:29.102Z,69.22
2019-05-25T06:11:57.365Z,69.06
2019-05-25T06:14:25.651Z,68.79
2019-05-25T06:16:54.075Z,68.51
2019-05-25T06:19:22.350Z,68.27
2019-05-25T06:21:50.768Z,68.35
2019-05-25T06:24:19.612Z,68.34
2019-05-25T06:26:47.825Z,68.29
2019-05-25T06:29:16.029Z,68.62
2019-05-25T06:31:44.260Z,68.56
2019-05-25T06:34:12.496Z,68.27
2019-05-25T06:36:40.720Z,68.17
2019-05-25T06:39:08.980Z,67.98
2019-05-25T06:41:37.194Z,68.04
2019-05-25T06:44:05.684Z,67.97
2019-05-25T06:46:33.899Z,67.72
2019-05-25T06:49:02.158Z,67.89
2019-05-25T06:51:30.350Z,67.75
2019-05-25T06:53:58.570Z,67.71
2019-05-25T06:56:26.798Z,67.72
2019-05-25T06:58:55.010Z,67.40
2019-05-25T07:01:23.254Z,67.29
2019-05-25T07:03:51.593Z,67.04
2019-05-25T07:06:20.006Z,66.72
2019-05-25T07:08:48.231Z,66.14
2019-05-25T07:11:16.444Z,65.05
2019-05-25T07:13:44.657Z,64.51
2019-05-25T07:16:12.886Z,64.02
2019-05-25T07:18:41.101Z,63.81
2019-05-25T07:21:09.314Z,62.96
2019-05-25T07:23:37.623Z,62.75
2019-05-25T07:26:05.820Z,62.32
2019-05-25T07:28:34.044Z,61.88
2019-05-25T07:31:02.339Z,62.09
2019-05-25T07:33:30.560Z,61.80
2019-05-25T07:35:58.810Z,60.74
2019-05-25T07:38:27.010Z,58.80
2019-05-25T07:40:55.220Z,57.36
2019-05-25T07:43:23.438Z,57.44
2019-05-25T07:45:51.677Z,56.99
2019-05-25T07:48:19.907Z,56.61
2019-05-25T07:50:48.116Z,56.46
2019-05-25T07:53:16.405Z,55.74
2019-05-25T07:55:44.602Z,55.64
2019-05-25T07:58:17.482Z,55.16
2019-05-25T08:00:42.797Z,54.86
2019-05-25T08:03:11.005Z,54.67
2019-05-25T08:05:39.233Z,54.06
2019-05-25T08:08:07.462Z,53.77
2019-05-25T08:10:35.646Z,53.23
2019-05-25T08:13:03.868Z,52.85
2019-05-25T08:15:32.075Z,53.21
2019-05-25T08:18:00.394Z,52.86
2019-05-25T08:20:28.594Z,52.51
2019-05-25T08:22:56.812Z,51.71
2019-05-25T08:25:25.099Z,51.01
2019-05-25T08:27:53.319Z,50.48
2019-05-25T08:30:21.823Z,49.55
2019-05-25T08:32:50.044Z,49.45
2019-05-25T08:35:18.261Z,49.77
2019-05-25T08:37:46.507Z,50.66
2019-05-25T08:40:14.811Z,51.40
2019-05-25T08:42:42.977Z,51.66
2019-05-25T08:45:11.226Z,52.22
2019-05-25T08:47:39.515Z,52.41
2019-05-25T08:50:08.198Z,52.37
2019-05-25T08:52:36.766Z,51.61
2019-05-25T08:55:06.717Z,51.42
2019-05-25T08:57:34.937Z,51.20
2019-05-25T09:00:04.350Z,50.53
2019-05-25T09:02:32.662Z,50.41
2019-05-25T09:05:00.909Z,50.04
2019-05-25T09:07:29.283Z,50.48
2019-05-25T09:09:57.518Z,50.68
2019-05-25T09:12:25.736Z,51.04
2019-05-25T09:14:54.004Z,51.00
2019-05-25T09:17:22.190Z,50.21
2019-05-25T09:19:52.177Z,49.98
2019-05-25T09:22:20.410Z,50.13
2019-05-25T09:24:48.628Z,50.28
2019-05-25T09:27:16.859Z,50.33
2019-05-25T09:29:45.092Z,50.12
2019-05-25T09:32:13.611Z,50.14
2019-05-25T09:34:41.800Z,50.26
2019-05-25T09:37:10.108Z,51.09
2019-05-25T09:39:38.303Z,51.57
2019-05-25T09:42:06.526Z,51.71
2019-05-25T09:44:34.740Z,51.98
2019-05-25T09:47:02.951Z,52.77
2019-05-25T09:49:31.185Z,53.18
2019-05-25T09:51:59.385Z,53.41
2019-05-25T09:54:27.591Z,52.54
2019-05-25T09:56:55.840Z,51.34
2019-05-25T09:59:24.045Z,50.81
2019-05-25T10:01:52.270Z,50.00
2019-05-25T10:04:20.475Z,49.94
2019-05-25T10:06:48.731Z,49.55
2019-05-25T10:09:16.956Z,48.59
2019-05-25T10:11:45.171Z,48.21
2019-05-25T10:14:13.412Z,47.35
2019-05-25T10:16:41.665Z,46.18
2019-05-25T10:19:09.903Z,46.28
2019-05-25T10:21:38.139Z,46.56
2019-05-25T10:24:06.374Z,46.98
2019-05-25T10:26:34.604Z,47.54
2019-05-25T10:29:02.822Z,47.92
2019-05-25T10:31:31.033Z,48.06
2019-05-25T10:33:59.385Z,47.89
2019-05-25T10:36:27.592Z,48.07
2019-05-25T10:38:55.830Z,47.42
2019-05-25T10:41:26.750Z,47.64
2019-05-25T10:43:54.972Z,47.58
2019-05-25T10:46:23.226Z,46.91
2019-05-25T10:48:51.418Z,47.29
2019-05-25T10:51:19.743Z,47.68
2019-05-25T10:53:47.954Z,48.00
2019-05-25T10:56:16.157Z,48.12
2019-05-25T10:58:44.410Z,47.97
2019-05-25T11:01:12.667Z,47.83
2019-05-25T11:03:40.872Z,47.86
2019-05-25T11:06:09.094Z,48.55
2019-05-25T11:08:37.324Z,49.69
2019-05-25T11:11:05.580Z,50.91
2019-05-25T11:13:33.800Z,51.75
2019-05-25T11:16:02.038Z,51.69
2019-05-25T11:18:30.254Z,51.89
2019-05-25T11:20:58.842Z,51.75
2019-05-25T11:23:27.083Z,51.59
2019-05-25T11:25:55.301Z,51.57
2019-05-25T11:28:23.509Z,51.22
2019-05-25T11:30:51.747Z,50.35
2019-05-25T11:33:19.962Z,49.91
2019-05-25T11:35:48.235Z,49.68
2019-05-25T11:38:16.397Z,49.40
2019-05-25T11:40:44.702Z,49.19
2019-05-25T11:43:12.983Z,49.05
2019-05-25T11:45:41.182Z,48.53
2019-05-25T11:48:09.388Z,47.90
2019-05-25T11:50:37.612Z,47.65
2019-05-25T11:53:06.185Z,47.55
2019-05-25T11:55:34.555Z,47.58
2019-05-25T11:58:02.786Z,47.41
2019-05-25T12:00:31.453Z,47.43
2019-05-25T12:02:59.681Z,47.32
2019-05-25T12:05:27.906Z,47.39
2019-05-25T12:07:56.145Z,47.67
2019-05-25T12:10:26.045Z,47.42
2019-05-25T12:12:54.306Z,47.70
2019-05-25T12:15:22.496Z,47.94
2019-05-25T12:17:50.722Z,47.71
2019-05-25T12:20:19.137Z,47.66
2019-05-25T12:22:47.343Z,47.44
2019-05-25T12:25:15.540Z,47.23
2019-05-25T12:27:43.760Z,47.50
2019-05-25T12:30:13.786Z,47.57
2019-05-25T12:32:42.006Z,47.97
2019-05-25T12:35:10.221Z,48.54
2019-05-25T12:37:38.458Z,49.24
2019-05-25T12:40:07.042Z,49.69
2019-05-25T12:42:35.271Z,49.96
2019-05-25T12:45:03.975Z,50.27
2019-05-25T12:47:32.205Z,50.61
2019-05-25T12:50:00.382Z,50.74
2019-05-25T12:52:28.598Z,50.97
2019-05-25T12:54:58.447Z,51.06
2019-05-25T12:57:26.659Z,50.95
2019-05-25T12:59:54.921Z,50.39
2019-05-25T13:02:23.117Z,50.01
2019-05-25T13:04:51.322Z,49.88
2019-05-25T13:07:19.678Z,49.52
2019-05-25T13:09:47.899Z,49.17
2019-05-25T13:12:16.225Z,48.67
2019-05-25T13:14:44.442Z,48.18
2019-05-25T13:17:12.669Z,48.17
2019-05-25T13:19:40.885Z,48.69
2019-05-25T13:22:09.358Z,48.82
2019-05-25T13:24:37.699Z,48.89
2019-05-25T13:27:05.889Z,49.15
2019-05-25T13:29:34.222Z,49.75
2019-05-25T13:32:02.442Z,50.49
2019-05-25T13:34:31.122Z,50.40
2019-05-25T13:37:01.735Z,50.35
2019-05-25T13:39:29.307Z,50.14
2019-05-25T13:41:57.533Z,50.33
2019-05-25T13:44:26.281Z,50.75
2019-05-25T13:46:55.300Z,51.31
2019-05-25T13:49:23.501Z,52.03
2019-05-25T13:51:51.759Z,52.35
2019-05-25T13:54:19.953Z,52.72
2019-05-25T13:56:48.290Z,52.63
2019-05-25T13:59:16.511Z,52.71
2019-05-25T14:01:44.760Z,52.57
2019-05-25T14:04:13.003Z,52.22
2019-05-25T14:06:41.238Z,51.71
2019-05-25T14:09:09.454Z,51.13
2019-05-25T14:11:37.661Z,50.83
2019-05-25T14:14:06.046Z,50.59
2019-05-25T14:16:34.290Z,50.48
2019-05-25T14:19:02.552Z,50.73
2019-05-25T14:21:30.786Z,51.30
2019-05-25T14:23:58.938Z,51.98
2019-05-25T14:26:27.209Z,52.70
2019-05-25T14:28:55.531Z,53.15
2019-05-25T14:31:25.357Z,53.85
2019-05-25T14:33:53.734Z,54.41
2019-05-25T14:36:22.466Z,54.85
2019-05-25T14:38:50.764Z,55.14
2019-05-25T14:41:18.976Z,55.29
2019-05-25T14:43:47.183Z,55.35
2019-05-25T14:46:27.407Z,55.39
2019-05-25T14:48:45.363Z,55.53
2019-05-25T14:51:13.592Z,55.61
2019-05-25T14:53:41.791Z,55.66
2019-05-25T14:56:10.005Z,55.86
2019-05-25T14:58:38.647Z,55.99
2019-05-25T15:01:06.973Z,56.07
2019-05-25T15:03:35.198Z,56.09
2019-05-25T15:06:03.415Z,56.04
2019-05-25T15:08:31.647Z,56.15
2019-05-25T15:10:59.847Z,56.14
2019-05-25T15:13:28.072Z,56.30
2019-05-25T15:15:56.279Z,56.35
2019-05-25T15:18:24.516Z,56.35
2019-05-25T15:20:52.714Z,56.45
2019-05-25T15:23:21.255Z,56.53
2019-05-25T15:25:49.473Z,56.46
2019-05-25T15:28:17.676Z,56.40
2019-05-25T15:30:46.027Z,56.29
2019-05-25T15:33:14.265Z,56.18
2019-05-25T15:35:42.556Z,56.20
2019-05-25T15:38:10.866Z,56.07
2019-05-25T15:40:39.256Z,55.97
2019-05-25T15:43:07.504Z,55.80
2019-05-25T15:45:35.826Z,55.71
2019-05-25T15:48:04.142Z,55.69
2019-05-25T15:50:32.353Z,55.58
2019-05-25T15:53:00.570Z,55.40
2019-05-25T15:55:28.783Z,54.88
2019-05-25T15:57:57.003Z,54.67
2019-05-25T16:00:34.248Z,54.44
2019-05-25T16:03:02.481Z,54.22
2019-05-25T16:05:30.767Z,53.79
2019-05-25T16:07:59.002Z,53.48
2019-05-25T16:10:27.213Z,53.19
2019-05-25T16:12:55.431Z,53.07
2019-05-25T16:15:27.624Z,53.23
2019-05-25T16:17:55.813Z,53.57
2019-05-25T16:20:24.036Z,53.99
2019-05-25T16:22:52.254Z,54.40
2019-05-25T16:25:20.451Z,54.71
2019-05-25T16:27:48.664Z,54.81
2019-05-25T16:30:16.926Z,54.65
2019-05-25T16:33:10.935Z,54.45
2019-05-25T16:35:15.164Z,54.14
2019-05-25T16:37:43.666Z,54.18
2019-05-25T16:40:12.072Z,54.09
2019-05-25T16:42:40.309Z,53.98
2019-05-25T16:45:09.862Z,53.88
2019-05-25T16:47:38.091Z,53.83
2019-05-25T16:50:07.938Z,54.01
2019-05-25T16:52:36.157Z,54.25
2019-05-25T16:55:06.221Z,54.51
2019-05-25T16:57:34.440Z,54.80
2019-05-25T17:00:02.752Z,55.16
2019-05-25T17:02:30.961Z,55.48
2019-05-25T17:04:59.209Z,55.67
2019-05-25T17:07:27.432Z,56.15
2019-05-25T17:09:55.671Z,56.15
2019-05-25T17:12:23.919Z,55.70
2019-05-25T17:14:52.155Z,55.71
2019-05-25T17:17:21.484Z,55.46
2019-05-25T17:19:49.688Z,55.43
2019-05-25T17:22:17.907Z,55.43
2019-05-25T17:24:46.142Z,55.50
2019-05-25T17:27:14.352Z,55.60
2019-05-25T17:29:42.653Z,55.80
2019-05-25T17:32:10.849Z,56.02
2019-05-25T17:34:39.065Z,56.00
2019-05-25T17:37:07.302Z,55.85
2019-05-25T17:39:35.503Z,55.69
2019-05-25T17:42:04.157Z,55.83
2019-05-25T17:44:32.382Z,56.15
2019-05-25T17:47:00.628Z,56.66
2019-05-25T17:49:28.830Z,56.97
2019-05-25T17:51:57.127Z,57.02
2019-05-25T17:54:25.360Z,56.98
2019-05-25T17:56:53.545Z,57.12
2019-05-25T17:59:21.815Z,57.29
2019-05-25T18:01:50.033Z,57.43
2019-05-25T18:04:18.247Z,57.56
2019-05-25T18:06:46.466Z,57.69
2019-05-25T18:09:14.694Z,57.89
2019-05-25T18:11:42.912Z,58.19
2019-05-25T18:14:11.123Z,58.47
2019-05-25T18:16:39.383Z,58.73
2019-05-25T18:19:07.660Z,58.84
2019-05-25T18:21:35.865Z,58.91
2019-05-25T18:24:04.255Z,58.95
2019-05-25T18:26:32.608Z,58.97
2019-05-25T18:29:00.889Z,59.00
2019-05-25T18:31:29.101Z,59.19
2019-05-25T18:33:57.358Z,59.37
2019-05-25T18:36:25.570Z,59.45
2019-05-25T18:38:53.790Z,59.54
2019-05-25T18:41:22.002Z,59.63
2019-05-25T18:43:50.229Z,59.73
2019-05-25T18:46:18.427Z,59.77
2019-05-25T18:48:46.632Z,59.91
2019-05-25T18:51:14.865Z,59.91
2019-05-25T18:53:43.064Z,59.56
2019-05-25T18:56:11.302Z,59.42
2019-05-25T18:58:39.519Z,59.35
2019-05-25T19:01:07.739Z,59.42
2019-05-25T19:03:35.962Z,59.50
2019-05-25T19:06:04.163Z,59.71
2019-05-25T19:08:32.480Z,59.90
2019-05-25T19:11:00.714Z,60.12
2019-05-25T19:13:28.945Z,60.32
2019-05-25T19:15:57.165Z,60.67
2019-05-25T19:18:25.381Z,61.06
2019-05-25T19:20:53.602Z,61.29
2019-05-25T19:23:21.863Z,61.07
2019-05-25T19:25:50.075Z,60.98
2019-05-25T19:28:18.341Z,60.90
2019-05-25T19:30:46.517Z,60.55
2019-05-25T19:33:14.734Z,60.29
2019-05-25T19:35:42.955Z,60.42
2019-05-25T19:38:11.240Z,60.66
2019-05-25T19:40:39.474Z,61.04
2019-05-25T19:43:07.704Z,61.49
2019-05-25T19:45:35.928Z,61.77
2019-05-25T19:48:04.200Z,61.94
2019-05-25T19:50:32.531Z,62.23
2019-05-25T19:53:00.803Z,62.51
2019-05-25T19:55:29.045Z,62.65
2019-05-25T19:57:57.283Z,62.82
2019-05-25T20:00:25.495Z,62.80
2019-05-25T20:02:53.807Z,62.87
2019-05-25T20:05:22.160Z,62.88
2019-05-25T20:07:50.381Z,62.98
2019-05-25T20:10:18.582Z,62.94
2019-05-25T20:12:46.800Z,62.98
2019-05-25T20:15:15.108Z,62.99
2019-05-25T20:17:43.325Z,63.00
2019-05-25T20:20:11.550Z,62.92
2019-05-25T20:22:39.754Z,62.64
2019-05-25T20:25:07.969Z,62.59
2019-05-25T20:27:36.196Z,62.40
2019-05-25T20:30:08.730Z,62.13
2019-05-25T20:32:37.003Z,61.92
2019-05-25T20:35:06.093Z,61.92
2019-05-25T20:37:34.315Z,61.90
2019-05-25T20:40:02.597Z,61.77
2019-05-25T20:42:30.826Z,61.73
2019-05-25T20:44:59.036Z,61.59
2019-05-25T20:47:27.246Z,61.49
2019-05-25T20:49:55.456Z,61.37
2019-05-25T20:52:23.742Z,61.40
2019-05-25T20:54:51.946Z,61.51
2019-05-25T20:57:20.191Z,61.63
2019-05-25T20:59:48.400Z,61.81
2019-05-25T21:02:16.626Z,61.98
2019-05-25T21:04:44.848Z,62.04
2019-05-25T21:07:13.057Z,62.08
2019-05-25T21:09:41.266Z,62.21
2019-05-25T21:12:09.506Z,62.23
2019-05-25T21:14:37.711Z,62.33
2019-05-25T21:17:05.940Z,62.44
2019-05-25T21:19:34.151Z,62.61
2019-05-25T21:22:02.357Z,62.77
2019-05-25T21:24:30.594Z,63.03
2019-05-25T21:26:58.801Z,63.18
2019-05-25T21:29:27.011Z,63.41
2019-05-25T21:31:55.240Z,63.62
2019-05-25T21:34:23.519Z,63.76
2019-05-25T21:36:51.713Z,63.83
2019-05-25T21:39:19.945Z,63.96
2019-05-25T21:41:48.252Z,64.21
2019-05-25T21:44:16.419Z,64.21
2019-05-25T21:46:44.673Z,64.53
2019-05-25T21:49:12.902Z,64.80
2019-05-25T21:51:41.123Z,65.00
2019-05-25T21:54:09.341Z,65.33
2019-05-25T21:56:37.584Z,65.44
2019-05-25T21:59:05.829Z,65.50
2019-05-25T22:01:34.055Z,65.57
2019-05-25T22:04:02.267Z,65.73
2019-05-25T22:06:30.469Z,65.92
2019-05-25T22:08:58.718Z,65.93
2019-05-25T22:11:26.922Z,66.05
2019-05-25T22:13:55.171Z,66.14
2019-05-25T22:16:23.423Z,66.30
2019-05-25T22:18:51.685Z,66.46
2019-05-25T22:21:19.912Z,66.83
2019-05-25T22:23:48.149Z,67.01
2019-05-25T22:26:16.360Z,67.01
2019-05-25T22:28:46.963Z,67.19
2019-05-25T22:31:15.225Z,67.29
2019-05-25T22:33:43.449Z,67.41
2019-05-25T22:36:11.678Z,67.49
2019-05-25T22:38:39.899Z,67.64
2019-05-25T22:41:08.142Z,67.85
2019-05-25T22:43:36.342Z,67.98
2019-05-25T22:46:04.591Z,68.20
2019-05-25T22:48:32.810Z,68.44
2019-05-25T22:51:00.999Z,68.92
2019-05-25T22:53:29.256Z,69.16
2019-05-25T22:55:57.470Z,69.26
2019-05-25T22:58:25.688Z,69.36
2019-05-25T23:00:53.946Z,69.57
2019-05-25T23:03:22.155Z,69.84
2019-05-25T23:05:50.387Z,70.06
2019-05-25T23:08:18.648Z,70.37
2019-05-25T23:10:46.868Z,70.45
2019-05-25T23:13:15.313Z,70.73
2019-05-25T23:15:43.526Z,70.73
2019-05-25T23:18:11.839Z,70.80
2019-05-25T23:20:40.073Z,70.97
2019-05-25T23:23:08.357Z,71.07
2019-05-25T23:25:36.621Z,71.18
2019-05-25T23:28:04.884Z,71.28
2019-05-25T23:30:33.095Z,71.45
2019-05-25T23:33:01.346Z,71.70
2019-05-25T23:35:29.542Z,71.87
2019-05-25T23:37:57.771Z,72.01
2019-05-25T23:40:25.984Z,72.05
2019-05-25T23:42:54.234Z,72.01
2019-05-25T23:45:22.455Z,72.15
2019-05-25T23:47:50.867Z,72.10
2019-05-25T23:50:19.067Z,72.16
2019-05-25T23:52:47.297Z,72.30
2019-05-25T23:55:15.498Z,72.34
2019-05-25T23:57:43.758Z,72.37
